Time;durP1;ratioP1;P1;durP2;ratioP2;P2;SDS_P1;SDS_P2;PMS_P1;PMS_P2;Temp;Humidity;BMP_temperature;BMP_pressure;BME280_temperature;BME280_humidity;BME280_pressure;Samples;Min_cycle;Max_cycle;Signal;HPM_P1;HPM_P2
2022/08/22 00:02:31;;;;;;;11.07;4.07;;;;;;;25.53;69.12;98074.84;6038955;23;20610;-91
2022/08/22 00:05:26;;;;;;;9.40;3.97;;;;;;;25.46;70.02;98084.75;6039956;23;20134;-91
2022/08/22 00:08:19;;;;;;;7.83;4.07;;;;;;;25.34;70.90;98089.81;6038744;23;20161;-91
2022/08/22 00:11:37;;;;;;;9.20;4.97;;;;;;;25.31;71.13;98098.28;6040099;23;20141;-91
2022/08/22 00:14:40;;;;;;;7.27;3.27;;;;;;;25.36;70.99;98084.25;5987927;23;20197;-91
2022/08/22 00:17:20;;;;;;;6.83;4.50;;;;;;;25.19;71.69;98093.66;6038399;23;20169;-90
2022/08/22 00:19:59;;;;;;;8.33;4.03;;;;;;;25.20;72.21;98089.97;6039574;23;20154;-90
2022/08/22 00:22:34;;;;;;;8.73;4.70;;;;;;;25.08;73.17;98099.59;6038674;23;20193;-91
2022/08/22 00:25:08;;;;;;;9.53;4.37;;;;;;;24.99;73.64;98102.44;6040044;23;20150;-91
2022/08/22 00:28:06;;;;;;;7.23;4.63;;;;;;;25.05;73.28;98100.81;6038531;23;20236;-90
2022/08/22 00:30:47;;;;;;;10.20;4.87;;;;;;;25.11;73.52;98096.50;6027138;23;20237;-91
2022/08/22 00:33:23;;;;;;;7.10;4.57;;;;;;;24.94;74.23;98088.78;6038471;23;20565;-91
2022/08/22 00:35:59;;;;;;;7.47;4.77;;;;;;;25.00;74.04;98090.66;6038727;23;20149;-91
2022/08/22 00:38:32;;;;;;;8.23;4.10;;;;;;;25.01;74.07;98097.69;6040317;23;20137;-91
2022/08/22 00:41:23;;;;;;;10.27;4.50;;;;;;;25.09;73.95;98101.22;6038574;23;20226;-91
2022/08/22 00:44:21;;;;;;;14.73;5.67;;;;;;;24.92;74.75;98109.56;6041078;23;20557;-91
2022/08/22 00:47:02;;;;;;;13.27;5.60;;;;;;;24.89;75.09;98101.13;6040308;23;20205;-90
2022/08/22 00:49:39;;;;;;;10.00;4.93;;;;;;;24.89;75.04;98103.81;6041494;23;20137;-91
2022/08/22 00:52:51;;;;;;;7.07;4.23;;;;;;;24.97;74.68;98103.66;6040319;23;20146;-90
2022/08/22 00:55:51;;;;;;;8.97;4.37;;;;;;;25.00;74.26;98096.03;6041238;23;20160;-91
2022/08/22 00:58:22;;;;;;;11.53;5.00;;;;;;;24.87;74.63;98101.28;6040325;23;20209;-91
2022/08/22 01:00:55;;;;;;;9.87;4.93;;;;;;;24.61;75.73;98093.03;6040471;23;20217;-92
2022/08/22 01:03:27;;;;;;;9.13;4.50;;;;;;;24.70;75.56;98089.19;6040138;23;20217;-92
2022/08/22 01:05:59;;;;;;;8.63;4.30;;;;;;;24.72;75.15;98081.78;6040192;23;20158;-92
2022/08/22 01:08:36;;;;;;;7.93;4.43;;;;;;;24.73;74.62;98086.13;6041411;23;20158;-91
2022/08/22 01:11:17;;;;;;;9.17;4.40;;;;;;;24.68;75.31;98083.22;6040274;23;20193;-90
2022/08/22 01:14:01;;;;;;;11.50;3.90;;;;;;;24.68;75.16;98088.56;6041691;23;20160;-91
2022/08/22 01:16:43;;;;;;;9.00;3.90;;;;;;;24.72;74.62;98084.47;6040010;23;20173;-90
2022/08/22 01:19:47;;;;;;;8.10;3.93;;;;;;;24.70;74.86;98091.88;6041431;23;20165;-90
2022/08/22 01:22:30;;;;;;;10.47;4.47;;;;;;;24.64;75.33;98095.31;6041163;23;20185;-90
2022/08/22 01:25:33;;;;;;;12.67;4.77;;;;;;;24.64;75.51;98095.31;6041304;23;20542;-91
2022/08/22 01:28:08;;;;;;;11.70;5.03;;;;;;;24.58;76.30;98093.41;6039992;23;20154;-91
2022/08/22 01:30:46;;;;;;;6.47;3.40;;;;;;;24.72;75.51;98091.66;6041756;23;20148;-91
2022/08/22 01:33:33;;;;;;;13.30;5.23;;;;;;;24.73;75.52;98088.81;6039819;23;20157;-91
2022/08/22 01:36:09;;;;;;;9.00;4.53;;;;;;;24.75;75.69;98100.16;6040939;23;20150;-90
2022/08/22 01:38:59;;;;;;;12.23;5.50;;;;;;;24.68;76.40;98101.97;6041163;23;20205;-90
2022/08/22 01:41:48;;;;;;;11.47;5.50;;;;;;;24.80;75.84;98100.44;6040030;23;20182;-91
2022/08/22 01:44:48;;;;;;;7.53;5.27;;;;;;;24.72;75.89;98100.53;6039703;23;20582;-90
2022/08/22 01:47:19;;;;;;;9.03;4.70;;;;;;;24.72;76.12;98100.53;6039747;23;20206;-90
2022/08/22 01:49:54;;;;;;;8.30;5.03;;;;;;;24.79;75.87;98088.03;6039603;23;20153;-90
2022/08/22 01:52:41;;;;;;;8.43;4.57;;;;;;;24.92;75.45;98082.75;6039583;23;20145;-90
2022/08/22 01:55:19;;;;;;;10.03;5.17;;;;;;;25.02;74.37;98088.63;6039450;23;20150;-91
2022/08/22 01:57:51;;;;;;;11.63;4.53;;;;;;;25.04;74.26;98086.56;6039649;23;20149;-90
2022/08/22 02:00:23;;;;;;;10.73;4.77;;;;;;;24.97;74.22;98085.69;6039499;23;20236;-91
2022/08/22 02:03:18;;;;;;;7.77;4.93;;;;;;;24.79;75.29;98087.25;6039738;23;20146;-90
2022/08/22 02:06:06;;;;;;;12.70;4.77;;;;;;;24.74;75.59;98084.25;6039923;23;20145;-91
2022/08/22 02:08:49;;;;;;;6.97;3.97;;;;;;;24.71;75.60;98082.78;6041687;23;20535;-90
2022/08/22 02:11:36;;;;;;;9.37;4.47;;;;;;;24.76;75.14;98080.38;6041406;23;20229;-90
2022/08/22 02:14:13;;;;;;;9.03;4.70;;;;;;;24.72;75.16;98081.78;6039802;23;20153;-91
2022/08/22 02:16:49;;;;;;;17.87;4.97;;;;;;;24.79;75.04;98082.69;6039236;23;20241;-90
2022/08/22 02:19:14;;;;;;;7.03;4.13;;;;;;;24.85;74.62;98081.06;6040882;23;20133;-91
2022/08/22 02:22:02;;;;;;;7.70;4.40;;;;;;;24.79;74.62;98077.31;6040430;23;20178;-90
2022/08/22 02:24:48;;;;;;;8.80;5.00;;;;;;;24.88;74.43;98076.16;6041188;23;20154;-91
2022/08/22 02:27:33;;;;;;;12.10;5.00;;;;;;;24.81;74.94;98080.66;6039337;23;20239;-90
2022/08/22 02:30:05;;;;;;;8.63;4.80;;;;;;;24.88;74.17;98081.53;6039378;23;20599;-90
2022/08/22 02:32:39;;;;;;;7.70;4.33;;;;;;;24.96;73.76;98086.72;6039287;23;20161;-91
2022/08/22 02:35:29;;;;;;;13.33;4.47;;;;;;;25.00;73.60;98100.56;6039229;23;20471;-90
2022/08/22 02:38:19;;;;;;;8.83;4.23;;;;;;;25.01;73.13;98107.59;6041173;23;20535;-90
2022/08/22 02:41:13;;;;;;;7.63;4.37;;;;;;;24.97;73.32;98112.50;6039155;23;20234;-91
2022/08/22 02:43:50;;;;;;;6.07;4.03;;;;;;;24.93;74.06;98111.25;6040666;23;20555;-91
2022/08/22 02:46:21;;;;;;;8.23;4.33;;;;;;;24.94;73.88;98112.91;6039183;23;20566;-91
2022/08/22 02:49:03;;;;;;;7.63;4.67;;;;;;;25.00;73.64;98106.75;6039194;23;20178;-92
2022/08/22 02:52:09;;;;;;;8.27;4.00;;;;;;;25.03;73.69;98110.88;6040622;23;20135;-91
2022/08/22 02:54:51;;;;;;;7.60;4.67;;;;;;;25.01;74.24;98113.78;5994540;23;20158;-90
2022/08/22 02:57:42;;;;;;;8.27;4.20;;;;;;;24.97;74.31;98109.00;6039169;23;20153;-91
2022/08/22 03:00:20;;;;;;;11.03;4.90;;;;;;;25.00;74.26;98106.75;6040477;23;20138;-91
2022/08/22 03:02:55;;;;;;;10.63;3.87;;;;;;;24.94;74.52;98104.88;6040190;23;20161;-92
2022/08/22 03:05:36;;;;;;;6.97;3.80;;;;;;;24.97;74.92;98112.50;6039189;23;20172;-90
2022/08/22 03:08:12;;;;;;;10.77;4.70;;;;;;;25.10;74.30;98110.94;6039360;23;20240;-90
2022/08/22 03:10:47;;;;;;;6.87;4.43;;;;;;;25.13;73.74;98121.28;6040836;23;20543;-91
2022/08/22 03:13:34;;;;;;;7.83;4.63;;;;;;;25.08;74.05;98118.38;6039007;23;20145;-91
2022/08/22 03:16:06;;;;;;;5.77;3.70;;;;;;;25.14;73.77;98120.22;6040169;23;20205;-90
2022/08/22 03:18:52;;;;;;;7.57;4.47;;;;;;;25.11;73.38;98120.63;6040714;23;20221;-92
2022/08/22 03:21:33;;;;;;;8.53;4.87;;;;;;;24.99;73.65;98131.91;6038900;23;20178;-92
2022/08/22 03:24:24;;;;;;;8.53;4.70;;;;;;;24.89;73.76;98136.81;6039091;23;20157;-91
2022/08/22 03:27:22;;;;;;;7.57;4.10;;;;;;;24.97;73.18;98131.25;6040783;23;20606;-91
2022/08/22 03:29:57;;;;;;;10.20;5.10;;;;;;;24.95;73.35;98130.63;6039961;23;20160;-91
2022/08/22 03:32:52;;;;;;;7.10;3.87;;;;;;;24.90;73.49;98135.75;6039127;23;20152;-92
2022/08/22 03:35:25;;;;;;;6.10;4.10;;;;;;;24.69;74.47;98138.44;6039984;23;20154;-92
2022/08/22 03:37:58;;;;;;;8.03;3.87;;;;;;;24.76;74.17;98142.03;6038833;23;20598;-91
2022/08/22 03:40:37;;;;;;;7.80;5.03;;;;;;;24.64;73.95;98142.72;6038711;23;20173;-91
2022/08/22 03:43:07;;;;;;;10.77;4.37;;;;;;;24.44;74.87;98156.81;6038815;23;20217;-90
2022/08/22 03:45:33;;;;;;;11.67;4.37;;;;;;;24.39;75.32;98153.03;6038759;23;20586;-91
2022/08/22 03:48:23;;;;;;;9.83;5.30;;;;;;;24.40;75.65;98157.34;6039876;23;20150;-91
2022/08/22 03:50:55;;;;;;;7.63;3.77;;;;;;;24.46;74.86;98156.59;6038710;23;20536;-90
2022/08/22 03:54:03;;;;;;;9.23;5.07;;;;;;;24.52;74.95;98155.84;6038521;23;20200;-91
2022/08/22 03:56:41;;;;;;;15.77;4.97;;;;;;;24.75;73.76;98156.44;6040389;23;20173;-90
2022/08/22 03:59:24;;;;;;;11.60;4.40;;;;;;;24.75;73.80;98164.47;6040383;23;20142;-90
2022/08/22 04:02:06;;;;;;;11.00;3.77;;;;;;;24.86;73.43;98164.00;6038498;23;20277;-91
2022/08/22 04:05:04;;;;;;;7.27;3.80;;;;;;;24.93;73.33;98170.22;6040076;23;20146;-90
2022/08/22 04:07:39;;;;;;;7.00;3.63;;;;;;;24.90;73.77;98177.81;6003600;23;20225;-90
2022/08/22 04:10:26;;;;;;;7.97;4.10;;;;;;;24.96;73.42;98174.38;6038485;23;20145;-90
2022/08/22 04:13:28;;;;;;;8.77;4.97;;;;;;;24.98;73.24;98180.38;6039982;23;20142;-90
2022/08/22 04:16:31;;;;;;;9.40;4.43;;;;;;;25.08;73.24;98177.34;6038275;23;20211;-89
2022/08/22 04:19:08;;;;;;;9.60;4.43;;;;;;;25.16;73.00;98180.69;6041504;23;20149;-90
2022/08/22 04:22:05;;;;;;;7.77;3.73;;;;;;;25.16;73.38;98177.22;6041890;23;20216;-90
2022/08/22 04:24:52;;;;;;;7.80;3.93;;;;;;;25.22;72.80;98176.41;6040720;23;20228;-89
2022/08/22 04:27:25;;;;;;;9.67;4.43;;;;;;;25.28;72.75;98173.78;6042094;23;20138;-90
2022/08/22 04:30:00;;;;;;;8.53;4.27;;;;;;;25.45;72.28;98177.78;6041500;23;20142;-90
2022/08/22 04:32:36;;;;;;;7.90;4.67;;;;;;;25.54;72.16;98162.41;6041792;23;20134;-89
2022/08/22 04:35:11;;;;;;;7.93;4.20;;;;;;;25.64;72.17;98170.91;6040301;23;20220;-89
2022/08/22 04:37:56;;;;;;;11.20;4.40;;;;;;;25.71;72.39;98177.13;6042002;23;20138;-89
2022/08/22 04:40:44;;;;;;;7.43;4.40;;;;;;;25.82;71.99;98173.88;6041611;23;20166;-90
2022/08/22 04:43:20;;;;;;;9.87;5.20;;;;;;;25.91;71.88;98170.00;6041738;23;20556;-90
2022/08/22 04:45:55;;;;;;;14.30;4.97;;;;;;;26.02;71.46;98164.03;6041693;23;20134;-89
2022/08/22 04:48:28;;;;;;;7.17;4.37;;;;;;;26.14;71.98;98164.31;6040171;23;20484;-90
2022/08/22 04:51:24;;;;;;;6.83;3.63;;;;;;;26.26;70.86;98162.69;6041966;23;20134;-90
2022/08/22 04:54:14;;;;;;;7.87;4.63;;;;;;;26.43;70.84;98160.44;6008478;23;20161;-89
2022/08/22 04:57:12;;;;;;;8.23;4.57;;;;;;;26.51;70.70;98171.84;6041910;23;20567;-90
2022/08/22 04:59:38;;;;;;;8.73;4.77;;;;;;;26.59;70.54;98168.13;6041696;23;20205;-90
2022/08/22 05:02:09;;;;;;;10.43;5.93;;;;;;;26.70;70.92;98168.31;6041229;23;20208;-91
2022/08/22 05:04:39;;;;;;;9.80;5.23;;;;;;;26.84;70.41;98172.72;6041506;23;20146;-90
2022/08/22 05:07:19;;;;;;;12.10;5.07;;;;;;;26.95;69.62;98176.63;6040169;23;20237;-91
2022/08/22 05:09:53;;;;;;;8.48;4.75;;;;;;;27.02;68.92;98168.59;6042005;23;20140;-91
2022/08/22 05:12:31;;;;;;;7.63;4.47;;;;;;;27.10;69.01;98166.47;6040088;23;20289;-91
2022/08/22 05:15:06;;;;;;;8.35;4.97;;;;;;;27.23;68.53;98171.00;6040053;23;20150;-91
2022/08/22 05:17:32;;;;;;;13.38;6.22;;;;;;;27.24;68.25;98173.50;6040159;23;20161;-91
2022/08/22 05:20:08;;;;;;;11.10;5.22;;;;;;;27.34;68.21;98173.06;6041164;23;20595;-91
2022/08/22 05:22:40;;;;;;;10.70;5.20;;;;;;;27.37;67.60;98178.88;6041484;23;20579;-91
2022/08/22 05:25:31;;;;;;;10.40;4.70;;;;;;;27.41;67.24;98185.50;6041174;23;20170;-93
2022/08/22 05:28:14;;;;;;;11.77;5.13;;;;;;;27.35;67.47;98180.94;6039742;23;20625;-91
2022/08/22 05:30:48;;;;;;;10.43;4.72;;;;;;;27.38;67.84;98188.59;6041354;23;20197;-91
2022/08/22 05:33:36;;;;;;;9.90;5.63;;;;;;;27.47;67.86;98196.47;6041368;23;20134;-90
2022/08/22 05:36:08;;;;;;;10.30;5.30;;;;;;;27.62;67.38;98187.09;6040980;23;20150;-91
2022/08/22 05:38:43;;;;;;;13.23;5.97;;;;;;;27.59;67.48;98187.56;6039910;23;20626;-91
2022/08/22 05:41:20;;;;;;;8.80;4.53;;;;;;;27.70;66.78;98194.16;6040506;23;20205;-91
2022/08/22 05:43:47;;;;;;;10.45;5.63;;;;;;;27.83;66.56;98196.81;6039837;23;20157;-92
2022/08/22 05:46:34;;;;;;;12.50;5.75;;;;;;;27.97;66.27;98193.84;6039834;23;20202;-91
2022/08/22 05:49:02;;;;;;;12.00;6.30;;;;;;;27.99;66.74;98194.44;6041656;23;20630;-91
2022/08/22 05:51:56;;;;;;;8.82;5.20;;;;;;;27.76;66.63;98206.75;6039822;23;20229;-91
2022/08/22 05:54:30;;;;;;;12.30;5.20;;;;;;;27.91;66.45;98201.91;6041208;23;20540;-91
2022/08/22 05:57:07;;;;;;;9.88;5.88;;;;;;;28.17;65.21;98201.03;6041309;23;20138;-91
2022/08/22 05:59:37;;;;;;;8.77;4.78;;;;;;;28.39;64.37;98202.34;6040855;23;20145;-92
2022/08/22 06:02:20;;;;;;;10.02;5.88;;;;;;;28.51;62.89;98204.13;6040015;23;20192;-91
2022/08/22 06:05:01;;;;;;;13.00;5.07;;;;;;;28.58;62.94;98209.50;6040012;23;20156;-91
2022/08/22 06:07:39;;;;;;;10.73;4.72;;;;;;;28.61;61.70;98218.03;6041448;23;20177;-91
2022/08/22 06:10:25;;;;;;;7.97;4.72;;;;;;;28.73;61.44;98207.34;6041036;23;20138;-91
2022/08/22 06:12:59;;;;;;;7.72;4.80;;;;;;;28.82;61.05;98208.75;6041119;23;20157;-91
2022/08/22 06:15:43;;;;;;;8.50;4.28;;;;;;;28.78;59.93;98217.47;6040302;23;20168;-91
2022/08/22 06:18:17;;;;;;;8.82;4.78;;;;;;;28.85;60.40;98215.56;6041342;23;20547;-91
2022/08/22 06:20:50;;;;;;;7.60;4.45;;;;;;;28.97;59.30;98220.03;6039514;23;20614;-91
2022/08/22 06:23:35;;;;;;;7.82;4.38;;;;;;;28.95;59.84;98224.84;6040380;23;20185;-91
2022/08/22 06:26:05;;;;;;;9.18;4.25;;;;;;;29.12;59.60;98230.50;6039571;23;20185;-91
2022/08/22 06:28:42;;;;;;;7.55;4.65;;;;;;;29.26;59.47;98223.16;6039391;23;20158;-91
2022/08/22 06:31:24;;;;;;;7.72;4.10;;;;;;;29.32;58.97;98222.28;6039470;23;20172;-91
2022/08/22 06:34:25;;;;;;;;;;;;;;;;;;;;;
2022/08/22 06:36:53;;;;;;;9.25;4.38;;;;;;;29.55;57.74;98215.19;6041241;23;20222;-91
2022/08/22 06:39:38;;;;;;;9.32;3.97;;;;;;;29.44;57.21;98221.31;6039674;23;20529;-92
2022/08/22 06:42:31;;;;;;;8.40;4.65;;;;;;;29.82;57.87;98227.38;6039086;23;20197;-92
2022/08/22 06:45:13;;;;;;;10.60;5.05;;;;;;;30.13;55.70;98223.69;6039809;23;20158;-91
2022/08/22 06:48:04;;;;;;;;;;;;;;;;;;;;;
2022/08/22 06:50:44;;;;;;;9.35;4.70;;;;;;;30.48;53.92;98223.88;6041190;23;20217;-91
2022/08/22 06:53:24;;;;;;;10.48;4.85;;;;;;;30.39;53.78;98230.66;6039452;23;20153;-91
2022/08/22 06:56:22;;;;;;;13.00;5.00;;;;;;;30.33;53.86;98226.13;6041077;23;20146;-93
2022/08/22 06:58:54;;;;;;;8.13;4.05;;;;;;;30.37;53.78;98232.78;6063986;23;20154;-91
2022/08/22 07:01:34;;;;;;;10.80;5.35;;;;;;;30.36;54.31;98242.75;6039087;23;20209;-92
2022/08/22 07:04:06;;;;;;;10.98;5.00;;;;;;;30.24;54.46;98243.72;6039965;23;20146;-92
2022/08/22 07:07:05;;;;;;;9.48;5.20;;;;;;;30.19;55.09;98240.88;6039501;23;20154;-94
2022/08/22 07:09:49;;;;;;;;;;;;;;;;;;;;;
2022/08/22 07:12:29;;;;;;;10.90;5.32;;;;;;;30.03;54.84;98238.78;6040591;23;20200;-91
2022/08/22 07:15:33;;;;;;;;;;;;;;;;;;;;;
2022/08/22 07:18:32;;;;;;;12.25;5.13;;;;;;;30.23;55.79;98236.66;6038465;23;20240;-92
2022/08/22 07:21:03;;;;;;;11.25;6.40;;;;;;;30.40;55.11;98237.69;6033170;23;20185;-91
2022/08/22 07:24:14;;;;;;;;;;;;;;;;;;;;;
2022/08/22 07:27:07;;;;;;;10.73;6.13;;;;;;;30.61;52.45;98239.91;6001517;23;20549;-92
2022/08/22 07:30:01;;;;;;;;;;;;;;;;;;;;;
2022/08/22 07:32:58;;;;;;;16.85;6.05;;;;;;;30.73;53.44;98231.84;6040706;23;20217;-92
2022/08/22 07:35:36;;;;;;;15.60;7.53;;;;;;;30.93;52.43;98238.63;6037638;23;20171;-92
2022/08/22 07:38:26;;;;;;;12.82;6.75;;;;;;;31.06;51.53;98226.75;6039244;23;20276;-92
2022/08/22 07:41:18;;;;;;;;;;;;;;;;;;;;;
2022/08/22 07:44:07;;;;;;;14.48;8.50;;;;;;;31.29;50.00;98248.44;6038992;23;20253;-92
2022/08/22 07:56:56;;;;;;;16.70;9.10;;;;;;;31.39;49.15;98235.16;6017276;23;20192;-92
2022/08/22 08:03:03;;;;;;;14.00;8.27;;;;;;;31.48;49.27;98241.91;6017536;23;20232;-92
2022/08/22 08:05:32;;;;;;;11.57;6.75;;;;;;;31.49;49.87;98240.03;6062652;23;20150;-91
2022/08/22 08:08:01;;;;;;;14.05;7.03;;;;;;;31.67;49.02;98244.47;6038917;23;20221;-91
2022/08/22 08:10:39;;;;;;;14.10;7.57;;;;;;;31.69;49.07;98245.06;6039854;23;20154;-91
2022/08/22 08:13:20;;;;;;;14.35;8.25;;;;;;;31.72;48.95;98241.88;6039062;23;20154;-92
2022/08/22 08:15:46;;;;;;;16.38;8.38;;;;;;;31.94;48.94;98229.38;6039761;23;20555;-92
2022/08/22 08:18:47;;;;;;;;;;;;;;;;;;;;;
2022/08/22 08:21:34;;;;;;;17.35;8.43;;;;;;;32.07;47.81;98240.81;6040268;23;20264;-92
2022/08/22 08:24:00;;;;;;;17.05;7.97;;;;;;;31.93;47.19;98228.53;6039816;23;20153;-91
2022/08/22 08:26:38;;;;;;;12.40;7.50;;;;;;;32.15;47.40;98226.84;6039993;23;20185;-91
2022/08/22 08:29:57;;;;;;;;;;;;;;;;;;;;;
2022/08/22 08:33:14;;;;;;;13.45;7.03;;;;;;;32.72;45.58;98216.88;5980866;24;20664;-92
2022/08/22 08:39:30;;;;;;;14.65;8.00;;;;;;;32.99;45.89;98216.25;6028178;23;20157;-91
2022/08/22 08:43:35;;;;;;;;;;;;;;;;;;;;;
2022/08/22 08:48:48;;;;;;;11.77;7.28;;;;;;;33.30;43.83;98221.97;6029456;23;20244;-91
2022/08/22 08:51:31;;;;;;;13.55;7.65;;;;;;;33.45;43.02;98215.94;6038899;23;20146;-91
2022/08/22 08:58:31;;;;;;;;;;;;;;;;;;;;;
2022/08/22 09:01:29;;;;;;;13.13;6.78;;;;;;;34.02;40.60;98211.03;5982741;23;20683;-92
2022/08/22 09:04:26;;;;;;;;;;;;;;;;;;;;;
2022/08/22 09:07:38;;;;;;;11.18;6.53;;;;;;;34.49;39.45;98195.81;6042358;23;20504;-92
2022/08/22 09:10:37;;;;;;;8.90;6.80;;;;;;;34.70;38.96;98207.75;6012662;23;20161;-92
2022/08/22 09:14:15;;;;;;;;;;;;;;;;;;;;;
2022/08/22 09:17:23;;;;;;;10.30;6.18;;;;;;;34.72;39.11;98211.06;5955411;24;20298;-93
2022/08/22 09:20:47;;;;;;;9.32;5.38;;;;;;;34.69;39.43;98210.75;5987369;23;20605;-92
2022/08/22 09:24:19;;;;;;;;;;;;;;;;;;;;;
2022/08/22 09:26:47;;;;;;;12.50;6.95;;;;;;;34.65;38.59;98194.09;5955548;24;20219;-92
2022/08/22 09:29:48;;;;;;;;;;;;;;;;;;;;;
2022/08/22 09:32:42;;;;;;;9.20;5.70;;;;;;;34.95;38.02;98188.13;6033998;23;20241;-92
2022/08/22 09:35:24;;;;;;;10.85;6.18;;;;;;;35.19;38.28;98190.22;6041904;23;20139;-92
2022/08/22 09:38:21;;;;;;;;;;;;;;;;;;;;;
2022/08/22 09:41:37;;;;;;;9.50;5.60;;;;;;;35.57;36.91;98183.72;6040907;23;20272;-92
2022/08/22 09:44:37;;;;;;;;;;;;;;;;;;;;;
2022/08/22 09:47:33;;;;;;;8.57;4.57;;;;;;;35.39;36.52;98177.84;6041652;23;20221;-91
2022/08/22 09:50:32;;;;;;;9.82;5.32;;;;;;;35.47;36.74;98180.91;6035548;23;20563;-91
2022/08/22 09:53:35;;;;;;;7.78;4.93;;;;;;;35.12;36.60;98169.75;6024443;23;20164;-91
2022/08/22 09:56:12;;;;;;;9.32;5.25;;;;;;;35.31;36.86;98172.88;6039736;23;20145;-92
2022/08/22 09:59:15;;;;;;;11.02;6.22;;;;;;;35.35;36.93;98177.56;6040447;23;20145;-92
2022/08/22 10:02:31;;;;;;;;;;;;;;;;;;;;;
2022/08/22 10:05:02;;;;;;;8.45;5.50;;;;;;;35.83;35.48;98167.47;6041453;23;20562;-93
2022/08/22 10:08:05;;;;;;;6.45;4.63;;;;;;;36.10;34.38;98166.25;6040789;23;20146;-95
2022/08/22 10:10:52;;;;;;;6.90;4.53;;;;;;;36.30;33.37;98149.09;6038423;23;20161;-94
2022/08/22 10:13:48;;;;;;;12.45;4.43;;;;;;;36.32;33.69;98155.13;6040007;23;20572;-95
2022/08/22 10:20:57;;;;;;;;;;;;;;;;;;;;;
2022/08/22 10:23:34;;;;;;;;;;;;;;;;;;;;;
2022/08/22 10:26:32;;;;;;;;;;;;;;;;;;;;;
2022/08/22 10:29:09;;;;;;;6.97;4.22;;;;;;;36.15;33.84;98147.16;6041604;23;20549;-94
2022/08/22 10:31:58;;;;;;;7.15;4.97;;;;;;;36.15;33.75;98146.34;6039955;23;20145;-95
2022/08/22 10:34:31;;;;;;;7.72;4.93;;;;;;;36.36;33.72;98139.84;6063963;23;20142;-93
2022/08/22 10:37:29;;;;;;;8.55;4.80;;;;;;;36.55;34.04;98132.00;6039943;23;20233;-93
2022/08/22 10:40:04;;;;;;;8.55;4.30;;;;;;;36.70;32.48;98135.53;6041879;23;20146;-93
2022/08/22 10:42:45;;;;;;;9.32;4.32;;;;;;;36.92;32.70;98124.34;6039794;23;20182;-93
2022/08/22 10:45:28;;;;;;;8.00;4.90;;;;;;;36.68;33.69;98131.44;6039791;23;20146;-94
2022/08/22 10:47:57;;;;;;;7.25;4.72;;;;;;;36.67;32.74;98108.78;6040198;23;20149;-93
2022/08/22 10:50:42;;;;;;;7.15;4.78;;;;;;;36.80;32.33;98110.97;6042363;23;20161;-94
2022/08/22 10:53:35;;;;;;;5.88;4.10;;;;;;;36.95;31.87;98110.97;6041071;23;20142;-94
2022/08/22 10:56:13;;;;;;;7.38;4.57;;;;;;;36.90;31.93;98108.22;6029952;23;20157;-94
2022/08/22 10:58:54;;;;;;;7.00;3.78;;;;;;;37.31;30.93;98111.75;6039772;23;20476;-94
2022/08/22 11:01:25;;;;;;;6.60;4.30;;;;;;;37.46;30.91;98102.69;6039750;23;20178;-94
2022/08/22 11:03:59;;;;;;;5.88;4.50;;;;;;;37.46;31.10;98105.44;6039815;23;20161;-96
2022/08/22 11:06:55;;;;;;;8.20;4.22;;;;;;;37.40;31.06;98101.88;6040545;23;20149;-95
2022/08/22 11:09:35;;;;;;;7.75;4.65;;;;;;;37.43;31.23;98100.50;6039696;23;20172;-94
2022/08/22 11:12:55;;;;;;;;;;;;;;;;;;;;;
2022/08/22 11:15:46;;;;;;;6.80;4.22;;;;;;;37.47;30.69;98090.66;6042253;23;20225;-95
2022/08/22 11:18:45;;;;;;;7.20;4.50;;;;;;;37.46;30.69;98086.28;6039536;23;20157;-94
2022/08/22 11:21:40;;;;;;;6.32;3.92;;;;;;;37.13;31.21;98081.44;6044124;23;20264;-95
2022/08/22 11:24:16;;;;;;;6.43;4.78;;;;;;;37.44;30.70;98077.56;6039526;23;20240;-95
2022/08/22 11:26:47;;;;;;;6.03;4.40;;;;;;;37.60;31.21;98078.31;6041211;23;20164;-96
2022/08/22 11:29:57;;;;;;;5.65;4.30;;;;;;;37.38;31.42;98082.19;6039475;23;20253;-95
2022/08/22 11:32:42;;;;;;;6.05;4.20;;;;;;;37.59;30.24;98082.13;6040500;23;20192;-95
2022/08/22 11:35:20;;;;;;;6.07;3.88;;;;;;;37.57;30.21;98074.22;6041034;23;20146;-94
2022/08/22 11:38:02;;;;;;;4.57;3.45;;;;;;;37.43;30.07;98073.16;6040465;23;20149;-94
2022/08/22 11:40:45;;;;;;;6.95;4.60;;;;;;;37.51;30.55;98065.22;6039121;23;20170;-93
2022/08/22 11:43:36;;;;;;;6.30;3.95;;;;;;;37.70;30.95;98070.06;6039161;23;20582;-94
2022/08/22 11:46:29;;;;;;;6.18;4.38;;;;;;;37.94;30.72;98063.69;6039317;23;20157;-93
2022/08/22 11:49:23;;;;;;;6.10;4.15;;;;;;;38.17;29.87;98062.16;6040370;23;20574;-94
2022/08/22 11:52:03;;;;;;;8.20;4.32;;;;;;;37.95;28.95;98054.34;6040241;23;20158;-95
2022/08/22 11:54:57;;;;;;;5.53;3.83;;;;;;;38.07;29.45;98056.75;6041105;23;20234;-95
2022/08/22 11:57:37;;;;;;;7.13;3.80;;;;;;;38.27;29.39;98058.50;6039237;23;20146;-94
2022/08/22 12:00:18;;;;;;;6.88;4.15;;;;;;;38.09;28.84;98049.88;6039467;23;20547;-95
2022/08/22 12:03:05;;;;;;;4.63;3.90;;;;;;;37.67;29.15;98051.47;6042245;23;20205;-95
2022/08/22 12:05:45;;;;;;;6.43;3.85;;;;;;;37.64;29.69;98044.63;6040684;23;20161;-94
2022/08/22 12:08:20;;;;;;;8.48;4.28;;;;;;;37.70;29.21;98037.22;6039101;23;20160;-94
2022/08/22 12:10:56;;;;;;;6.20;4.07;;;;;;;38.04;28.83;98035.41;6039223;23;20157;-94
2022/08/22 12:13:52;;;;;;;5.13;3.33;;;;;;;38.12;28.82;98037.56;6040841;23;20150;-95
2022/08/22 12:16:26;;;;;;;5.70;3.72;;;;;;;38.13;29.04;98034.53;6041239;23;20486;-94
2022/08/22 12:19:35;;;;;;;4.38;3.30;;;;;;;38.26;28.97;98026.78;6040061;23;20172;-95
2022/08/22 12:22:25;;;;;;;5.45;3.28;;;;;;;38.33;28.58;98027.28;5954124;24;20336;-92
2022/08/22 12:25:35;;;;;;;4.15;3.28;;;;;;;38.46;28.35;98016.50;6040151;23;20158;-95
2022/08/22 12:28:20;;;;;;;5.03;3.40;;;;;;;38.61;28.84;98023.75;6007470;23;20154;-94
2022/08/22 12:30:53;;;;;;;4.70;3.10;;;;;;;38.72;28.38;98028.03;6039032;23;20154;-93
2022/08/22 12:33:34;;;;;;;4.93;3.28;;;;;;;38.98;27.15;98032.19;6039136;23;20483;-94
2022/08/22 12:36:21;;;;;;;4.93;3.22;;;;;;;39.09;27.63;98035.63;6039007;23;20158;-95
2022/08/22 12:39:14;;;;;;;5.40;3.33;;;;;;;38.90;28.54;98024.59;6040173;23;20173;-95
2022/08/22 12:42:14;;;;;;;6.10;3.10;;;;;;;38.70;28.27;98027.53;6041410;23;20260;-95
2022/08/22 12:45:17;;;;;;;3.90;3.22;;;;;;;38.94;28.50;98020.19;6041108;23;20154;-93
2022/08/22 12:47:55;;;;;;;6.28;3.58;;;;;;;38.79;27.54;98024.97;6040781;23;20221;-93
2022/08/22 12:50:44;;;;;;;5.68;4.07;;;;;;;38.91;28.38;98022.69;6040765;23;20241;-93
2022/08/22 12:53:18;;;;;;;5.85;3.55;;;;;;;39.03;27.54;98018.44;6041434;23;20230;-94
2022/08/22 12:55:56;;;;;;;6.80;3.35;;;;;;;38.98;27.41;98021.22;6041943;23;20155;-96
2022/08/22 12:58:42;;;;;;;4.95;3.65;;;;;;;38.91;27.71;98026.25;6040984;23;20157;-96
2022/08/22 13:01:09;;;;;;;4.05;3.00;;;;;;;38.78;28.30;98020.63;6040839;23;20212;-95
2022/08/22 13:03:59;;;;;;;5.55;3.20;;;;;;;38.66;27.85;98020.97;6041786;23;20154;-94
2022/08/22 13:06:40;;;;;;;4.43;2.90;;;;;;;38.75;27.68;98012.97;6064836;23;20158;-95
2022/08/22 13:09:21;;;;;;;3.97;3.28;;;;;;;38.85;28.36;98019.19;6040857;23;20162;-95
2022/08/22 13:11:52;;;;;;;4.47;3.17;;;;;;;38.87;27.39;98006.00;6040331;23;20150;-91
2022/08/22 13:14:25;;;;;;;8.23;3.72;;;;;;;38.84;27.54;98006.56;6041459;23;20138;-92
2022/08/22 13:16:54;;;;;;;5.20;3.58;;;;;;;38.71;27.99;98008.03;6041447;23;20166;-93
2022/08/22 13:19:30;;;;;;;6.03;4.20;;;;;;;38.40;27.58;98005.88;6040515;23;20233;-92
2022/08/22 13:22:04;;;;;;;4.50;2.95;;;;;;;38.31;27.94;98004.88;6040483;23;20181;-93
2022/08/22 13:24:42;;;;;;;4.63;3.20;;;;;;;38.42;28.09;98009.16;6040561;23;20146;-94
2022/08/22 13:27:18;;;;;;;4.60;3.60;;;;;;;38.58;27.82;98013.38;6040405;23;20586;-93
2022/08/22 13:29:52;;;;;;;7.35;3.33;;;;;;;38.75;27.27;98007.50;6040434;23;20570;-94
2022/08/22 13:32:38;;;;;;;6.82;3.85;;;;;;;38.88;27.48;98002.16;6040480;23;20142;-93
2022/08/22 13:35:08;;;;;;;4.28;3.72;;;;;;;38.88;27.43;97993.09;6040375;23;20161;-93
2022/08/22 13:37:43;;;;;;;6.10;3.40;;;;;;;38.81;27.64;97996.22;6041440;23;20285;-94
2022/08/22 13:40:19;;;;;;;4.25;3.45;;;;;;;38.58;27.52;98002.41;6040267;23;20171;-94
2022/08/22 13:42:49;;;;;;;5.88;3.58;;;;;;;38.47;28.06;97992.69;6041515;23;20598;-93
2022/08/22 13:45:21;;;;;;;4.63;3.35;;;;;;;38.58;28.50;97997.75;6040173;23;20189;-93
2022/08/22 13:48:00;;;;;;;5.93;3.63;;;;;;;38.71;28.06;97994.34;6040246;23;20153;-94
2022/08/22 13:50:29;;;;;;;5.57;3.45;;;;;;;38.74;27.69;97995.69;6040060;23;20146;-94
2022/08/22 13:53:05;;;;;;;4.25;2.72;;;;;;;38.79;27.29;97998.41;6040437;23;20173;-93